createdAt,value
2023-02-16T00:00:33.237Z,46.17
2023-02-16T00:02:59.853Z,48.30
2023-02-16T00:05:29.585Z,52.42
2023-02-16T00:07:57.236Z,51.42
2023-02-16T00:10:24.721Z,44.38
2023-02-16T00:13:10.565Z,46.13
2023-02-16T00:15:37.032Z,43.33
2023-02-16T00:18:05.978Z,47.10
2023-02-16T00:20:32.449Z,50.97
2023-02-16T00:22:58.858Z,50.38
2023-02-16T00:25:25.420Z,52.10
2023-02-16T00:27:52.224Z,50.42
2023-02-16T00:30:22.260Z,46.15
2023-02-16T00:32:48.809Z,54.15
2023-02-16T00:35:17.452Z,47.22
2023-02-16T00:37:43.919Z,49.97
2023-02-16T00:40:13.483Z,53.25
2023-02-16T00:42:40.545Z,49.20
2023-02-16T00:45:15.908Z,42.35
2023-02-16T00:47:44.692Z,47.95
2023-02-16T00:50:19.746Z,50.97
2023-02-16T00:52:47.442Z,50.83
2023-02-16T00:55:16.828Z,43.75
2023-02-16T00:57:48.212Z,47.72
2023-02-16T01:00:17.463Z,49.45
2023-02-16T01:02:45.370Z,48.20
2023-02-16T01:05:12.531Z,53.63
2023-02-16T01:07:57.599Z,48.40
2023-02-16T01:10:43.782Z,50.78
2023-02-16T01:13:11.529Z,50.53
2023-02-16T01:15:38.641Z,51.58
2023-02-16T01:18:06.293Z,50.97
2023-02-16T01:20:33.419Z,50.65
2023-02-16T01:22:59.889Z,53.28
2023-02-16T01:25:26.528Z,51.20
2023-02-16T01:27:53.089Z,52.95
2023-02-16T01:30:25.620Z,54.17
2023-02-16T01:32:54.012Z,51.10
2023-02-16T01:35:29.313Z,50.65
2023-02-16T01:37:55.829Z,48.90
2023-02-16T01:40:34.397Z,56.30
2023-02-16T01:43:14.839Z,52.47
2023-02-16T01:45:46.445Z,52.00
2023-02-16T01:48:26.054Z,48.80
2023-02-16T01:51:02.007Z,51.08
2023-02-16T01:53:31.667Z,48.67
2023-02-16T01:56:06.020Z,51.80
2023-02-16T01:58:42.715Z,48.58
2023-02-16T02:01:31.929Z,47.47
2023-02-16T02:04:17.105Z,50.88
2023-02-16T02:06:44.014Z,52.75
2023-02-16T02:09:13.435Z,49.35
2023-02-16T02:11:46.630Z,52.10
2023-02-16T02:14:22.177Z,51.22
2023-02-16T02:17:00.979Z,51.55
2023-02-16T02:19:28.351Z,50.60
2023-02-16T02:22:35.481Z,53.58
2023-02-16T02:25:19.219Z,48.95
2023-02-16T02:28:05.380Z,47.22
2023-02-16T02:30:50.139Z,47.75
2023-02-16T02:33:44.099Z,51.40
2023-02-16T02:36:20.048Z,44.92
2023-02-16T02:39:04.609Z,51.13
2023-02-16T02:42:05.312Z,46.58
2023-02-16T02:44:39.581Z,51.53
2023-02-16T02:47:06.105Z,48.25
2023-02-16T02:49:32.641Z,44.75
2023-02-16T02:52:02.733Z,48.40
2023-02-16T02:54:56.215Z,47.58
2023-02-16T02:57:58.857Z,52.08
2023-02-16T03:00:44.276Z,47.60
2023-02-16T03:03:27.585Z,46.25
2023-02-16T03:06:01.450Z,46.60
2023-02-16T03:08:31.630Z,44.47
2023-02-16T03:11:21.376Z,50.17
2023-02-16T03:13:57.127Z,48.95
2023-02-16T03:16:31.272Z,46.13
2023-02-16T03:19:17.519Z,43.47
2023-02-16T03:22:03.005Z,44.83
2023-02-16T03:24:50.283Z,43.10
2023-02-16T03:27:45.703Z,45.38
2023-02-16T03:30:13.969Z,41.58
2023-02-16T03:32:43.091Z,49.42
2023-02-16T03:35:12.778Z,43.65
2023-02-16T03:37:43.723Z,41.58
2023-02-16T03:40:29.649Z,49.13
2023-02-16T03:42:58.766Z,50.10
2023-02-16T03:45:28.890Z,42.92
2023-02-16T03:47:55.500Z,46.55
2023-02-16T03:50:22.517Z,47.25
2023-02-16T03:52:49.091Z,48.58
2023-02-16T03:55:15.726Z,43.25
2023-02-16T03:57:42.329Z,44.35
2023-02-16T04:00:09.294Z,46.58
2023-02-16T04:02:35.738Z,49.42
2023-02-16T04:05:02.302Z,49.53
2023-02-16T04:07:30.746Z,43.28
2023-02-16T04:09:58.442Z,45.55
2023-02-16T04:12:37.059Z,42.90
2023-02-16T04:15:09.494Z,46.30
2023-02-16T04:17:36.192Z,44.78
2023-02-16T04:20:03.340Z,47.25
2023-02-16T04:22:29.980Z,47.55
2023-02-16T04:24:57.819Z,47.70
2023-02-16T04:27:24.306Z,44.70
2023-02-16T04:29:50.754Z,42.13
2023-02-16T04:32:17.243Z,46.13
2023-02-16T04:34:43.643Z,46.38
2023-02-16T04:37:10.078Z,42.63
2023-02-16T04:39:36.521Z,42.42
2023-02-16T04:42:03.588Z,45.83
2023-02-16T04:44:30.178Z,46.90
2023-02-16T04:46:56.841Z,47.05
2023-02-16T04:49:23.262Z,44.70
2023-02-16T04:51:49.737Z,43.78
2023-02-16T04:54:16.549Z,41.63
2023-02-16T04:56:46.858Z,44.65
2023-02-16T04:59:14.173Z,48.08
2023-02-16T05:01:41.571Z,44.67
2023-02-16T05:04:09.412Z,46.60
2023-02-16T05:06:36.685Z,44.05
2023-02-16T05:09:04.678Z,45.25
2023-02-16T05:11:49.988Z,49.03
2023-02-16T05:14:47.206Z,41.90
2023-02-16T05:17:25.455Z,48.58
2023-02-16T05:19:57.405Z,48.88
2023-02-16T05:22:24.920Z,42.05
2023-02-16T05:24:51.576Z,52.00
2023-02-16T05:27:21.542Z,46.58
2023-02-16T05:29:48.400Z,42.88
2023-02-16T05:32:16.116Z,47.75
2023-02-16T05:34:44.534Z,47.08
2023-02-16T05:37:12.001Z,49.45
2023-02-16T05:39:38.484Z,49.03
2023-02-16T05:42:04.949Z,45.17
2023-02-16T05:44:31.321Z,48.00
2023-02-16T05:47:00.420Z,48.15
2023-02-16T05:49:26.903Z,47.70
2023-02-16T05:51:53.395Z,42.88
2023-02-16T05:54:19.812Z,46.63
2023-02-16T05:56:51.259Z,52.38
2023-02-16T05:59:18.375Z,48.60
2023-02-16T06:01:50.511Z,44.15
2023-02-16T06:04:18.005Z,48.13
2023-02-16T06:06:44.599Z,49.50
2023-02-16T06:09:11.188Z,46.50
2023-02-16T06:11:37.695Z,46.25
2023-02-16T06:14:30.186Z,49.30
2023-02-16T06:16:57.750Z,45.80
2023-02-16T06:19:24.489Z,44.70
2023-02-16T06:21:51.084Z,44.45
2023-02-16T06:24:17.470Z,44.28
2023-02-16T06:26:44.300Z,42.50
2023-02-16T06:29:10.834Z,44.60
2023-02-16T06:31:37.569Z,47.10
2023-02-16T06:34:05.253Z,42.65
2023-02-16T06:36:32.019Z,45.55
2023-02-16T06:38:58.738Z,47.08
2023-02-16T06:41:31.811Z,45.55
2023-02-16T06:44:03.195Z,46.45
2023-02-16T06:46:30.167Z,41.30
2023-02-16T06:48:56.830Z,43.10
2023-02-16T06:51:23.610Z,46.47
2023-02-16T06:53:50.095Z,49.05
2023-02-16T06:56:19.641Z,43.88
2023-02-16T06:58:46.271Z,47.85
2023-02-16T07:01:13.001Z,48.58
2023-02-16T07:03:39.944Z,46.17
2023-02-16T07:06:06.802Z,46.63
2023-02-16T07:08:34.537Z,47.83
2023-02-16T07:11:01.988Z,51.15
2023-02-16T07:13:28.837Z,47.95
2023-02-16T07:15:55.258Z,45.53
2023-02-16T07:18:21.651Z,47.83
2023-02-16T07:20:48.479Z,44.75
2023-02-16T07:23:14.945Z,41.95
2023-02-16T07:25:41.373Z,44.83
2023-02-16T07:28:07.932Z,51.20
2023-02-16T07:30:35.752Z,43.85
2023-02-16T07:33:02.587Z,49.28
2023-02-16T07:35:29.032Z,47.85
2023-02-16T07:37:55.561Z,46.13
2023-02-16T07:40:22.059Z,45.35
2023-02-16T07:42:48.535Z,50.13
2023-02-16T07:45:14.964Z,47.38
2023-02-16T07:47:41.380Z,45.20
2023-02-16T07:50:08.431Z,47.97
2023-02-16T07:52:35.004Z,46.55
2023-02-16T07:55:04.884Z,46.55
2023-02-16T07:57:31.607Z,45.63
2023-02-16T07:59:58.030Z,48.95
2023-02-16T08:02:24.641Z,42.80
2023-02-16T08:04:52.916Z,44.10
2023-02-16T08:07:20.217Z,52.63
2023-02-16T08:09:46.948Z,45.97
2023-02-16T08:12:16.464Z,48.65
2023-02-16T08:14:43.643Z,47.05
2023-02-16T08:17:10.658Z,46.45
2023-02-16T08:19:37.299Z,47.65
2023-02-16T08:22:05.291Z,42.40
2023-02-16T08:24:33.948Z,47.58
2023-02-16T08:27:03.814Z,45.20
2023-02-16T08:29:30.637Z,49.67
2023-02-16T08:31:57.172Z,48.03
2023-02-16T08:34:24.507Z,48.58
2023-02-16T08:36:55.787Z,46.67
2023-02-16T08:39:25.913Z,41.47
2023-02-16T08:41:53.501Z,45.20
2023-02-16T08:44:22.211Z,50.60
2023-02-16T08:46:51.159Z,52.70
2023-02-16T08:49:23.974Z,58.42
2023-02-16T08:51:54.633Z,46.30
2023-02-16T08:54:30.512Z,53.83
2023-02-16T08:56:59.608Z,47.35
2023-02-16T08:59:28.755Z,51.88
2023-02-16T09:01:56.877Z,51.60
2023-02-16T09:04:24.713Z,48.35
2023-02-16T09:06:52.374Z,49.72
2023-02-16T09:09:19.146Z,56.83
2023-02-16T09:11:46.157Z,51.90
2023-02-16T09:14:12.581Z,56.28
2023-02-16T09:16:44.001Z,53.28
2023-02-16T09:19:10.915Z,50.20
2023-02-16T09:21:37.500Z,58.13
2023-02-16T09:24:05.075Z,48.42
2023-02-16T09:26:34.269Z,54.60
2023-02-16T09:29:02.029Z,53.25
2023-02-16T09:31:31.171Z,48.55
2023-02-16T09:34:27.457Z,58.30
2023-02-16T09:36:54.207Z,50.03
2023-02-16T09:39:20.684Z,54.45
2023-02-16T09:41:50.341Z,52.88
2023-02-16T09:44:26.233Z,48.55
2023-02-16T09:46:56.566Z,48.83
2023-02-16T09:49:32.793Z,54.78
2023-02-16T09:52:06.651Z,53.42
2023-02-16T09:54:54.864Z,48.95
2023-02-16T09:57:40.643Z,58.13
2023-02-16T10:00:14.380Z,53.92
2023-02-16T10:02:52.054Z,52.65
2023-02-16T10:05:47.331Z,48.40
2023-02-16T10:08:25.073Z,51.65
2023-02-16T10:11:32.913Z,56.47
2023-02-16T10:14:30.148Z,52.20
2023-02-16T10:17:11.236Z,49.88
2023-02-16T10:19:38.271Z,61.67
2023-02-16T10:22:08.346Z,49.72
2023-02-16T10:24:47.651Z,51.78
2023-02-16T10:27:16.291Z,51.72
2023-02-16T10:29:43.204Z,52.92
2023-02-16T10:32:19.449Z,51.13
2023-02-16T10:35:00.458Z,48.30
2023-02-16T10:38:01.759Z,50.58
2023-02-16T10:40:37.265Z,52.05
2023-02-16T10:43:18.183Z,54.00
2023-02-16T10:46:03.418Z,50.47
2023-02-16T10:48:30.199Z,53.75
2023-02-16T10:51:16.806Z,49.47
2023-02-16T10:53:52.852Z,50.35
2023-02-16T10:57:11.184Z,49.55
2023-02-16T10:59:43.288Z,58.05
2023-02-16T11:02:19.926Z,58.53
2023-02-16T11:04:54.532Z,51.67
2023-02-16T11:07:26.922Z,51.97
2023-02-16T11:09:55.931Z,58.45
2023-02-16T11:12:29.542Z,48.35
2023-02-16T11:15:03.275Z,57.50
2023-02-16T11:17:33.203Z,51.53
2023-02-16T11:20:05.690Z,53.63
2023-02-16T11:22:37.158Z,57.85
2023-02-16T11:25:20.587Z,51.92
2023-02-16T11:27:53.102Z,56.80
2023-02-16T11:30:29.399Z,52.17
2023-02-16T11:32:56.568Z,50.00
2023-02-16T11:35:23.011Z,53.25
2023-02-16T11:37:49.812Z,51.25
2023-02-16T11:40:37.341Z,53.20
2023-02-16T11:43:06.810Z,52.53
2023-02-16T11:45:36.084Z,53.25
2023-02-16T11:48:14.004Z,54.80
2023-02-16T11:50:56.728Z,50.90
2023-02-16T11:53:26.568Z,50.45
2023-02-16T11:56:27.417Z,53.72
2023-02-16T11:59:21.646Z,50.50
2023-02-16T12:02:03.791Z,45.63
2023-02-16T12:04:53.259Z,49.85
2023-02-16T12:07:44.134Z,50.05
2023-02-16T12:10:26.016Z,47.03
2023-02-16T12:13:28.822Z,43.35
2023-02-16T12:16:17.174Z,43.67
2023-02-16T12:19:05.291Z,42.03
2023-02-16T12:21:55.531Z,50.25
2023-02-16T12:24:28.087Z,39.03
2023-02-16T12:27:02.772Z,43.90
2023-02-16T12:29:35.050Z,38.95
2023-02-16T12:32:39.185Z,37.53
2023-02-16T12:35:29.892Z,34.22
2023-02-16T12:38:18.699Z,35.25
2023-02-16T12:41:00.196Z,34.22
2023-02-16T12:43:36.314Z,31.45
2023-02-16T12:46:28.163Z,27.27
2023-02-16T12:49:11.523Z,31.15
2023-02-16T12:52:08.322Z,32.65
2023-02-16T12:54:45.301Z,31.63
2023-02-16T12:57:18.481Z,31.33
2023-02-16T12:59:55.592Z,30.50
2023-02-16T13:02:31.399Z,29.98
2023-02-16T13:05:13.539Z,38.65
2023-02-16T13:07:49.061Z,28.98
2023-02-16T13:10:30.579Z,30.55
2023-02-16T13:13:01.096Z,29.83
2023-02-16T13:15:46.022Z,31.30
2023-02-16T13:18:30.274Z,32.13
2023-02-16T13:21:08.273Z,36.95
2023-02-16T13:23:58.011Z,32.58
2023-02-16T13:26:41.817Z,27.90
2023-02-16T13:29:28.961Z,31.98
2023-02-16T13:32:01.933Z,37.13
2023-02-16T13:35:19.238Z,34.08
2023-02-16T13:37:58.236Z,32.58
2023-02-16T13:40:53.520Z,32.72
2023-02-16T13:43:34.936Z,26.38
2023-02-16T13:46:12.189Z,29.77
2023-02-16T13:48:47.416Z,32.88
2023-02-16T13:51:18.587Z,31.77
2023-02-16T13:53:54.121Z,28.60
2023-02-16T13:56:36.080Z,30.95
2023-02-16T13:59:18.472Z,27.08
2023-02-16T14:01:46.572Z,33.97
2023-02-16T14:04:22.255Z,28.95
2023-02-16T14:06:51.458Z,25.77
2023-02-16T14:09:17.863Z,28.60
2023-02-16T14:11:53.260Z,27.70
2023-02-16T14:14:44.253Z,29.00
2023-02-16T14:17:19.849Z,33.45
2023-02-16T14:20:00.629Z,29.67
2023-02-16T14:22:34.316Z,27.27
2023-02-16T14:25:03.771Z,23.50
2023-02-16T14:27:42.514Z,27.02
2023-02-16T14:30:27.055Z,27.42
2023-02-16T14:33:01.561Z,28.25
2023-02-16T14:35:39.735Z,26.45
2023-02-16T14:38:17.022Z,24.70
2023-02-16T14:40:51.582Z,29.33
2023-02-16T14:43:37.050Z,24.58
2023-02-16T14:46:35.518Z,27.95
2023-02-16T14:49:39.645Z,24.90
2023-02-16T14:52:35.864Z,34.83
2023-02-16T14:55:44.320Z,26.27
2023-02-16T14:58:29.068Z,25.05
2023-02-16T15:01:16.245Z,25.85
2023-02-16T15:03:51.630Z,24.02
2023-02-16T15:06:40.296Z,26.30
2023-02-16T15:09:16.030Z,29.08
2023-02-16T15:12:11.182Z,27.55
2023-02-16T15:14:45.180Z,25.67
2023-02-16T15:17:25.241Z,21.88
2023-02-16T15:19:53.652Z,26.00
2023-02-16T15:22:25.963Z,24.95
2023-02-16T15:25:08.081Z,22.65
2023-02-16T15:27:34.481Z,31.02
2023-02-16T15:30:21.680Z,23.15
2023-02-16T15:32:54.872Z,26.65
2023-02-16T15:35:42.582Z,26.52
2023-02-16T15:38:11.677Z,26.73
2023-02-16T15:40:38.853Z,25.38
2023-02-16T15:43:14.080Z,23.27
2023-02-16T15:45:40.920Z,24.73
2023-02-16T15:48:54.003Z,28.65
2023-02-16T15:51:33.972Z,24.20
2023-02-16T15:54:02.898Z,32.70
2023-02-16T15:56:52.324Z,25.65
2023-02-16T15:59:37.359Z,27.63
2023-02-16T16:02:19.311Z,31.80
2023-02-16T16:04:58.825Z,26.23
2023-02-16T16:07:28.520Z,29.13
2023-02-16T16:09:57.020Z,32.28
2023-02-16T16:12:24.794Z,27.05
2023-02-16T16:14:59.567Z,30.88
2023-02-16T16:17:37.345Z,30.65
2023-02-16T16:20:25.727Z,31.08
2023-02-16T16:22:58.202Z,29.35
2023-02-16T16:25:45.402Z,27.75
2023-02-16T16:28:33.984Z,31.45
2023-02-16T16:31:22.221Z,34.25
2023-02-16T16:34:02.073Z,29.40
2023-02-16T16:36:53.153Z,31.05
2023-02-16T16:39:25.317Z,29.45
2023-02-16T16:47:21.147Z,29.27
2023-02-16T16:50:14.762Z,30.55
2023-02-16T16:52:49.939Z,24.90
2023-02-16T16:55:19.235Z,31.35
2023-02-16T16:57:46.542Z,30.58
2023-02-16T17:00:14.457Z,32.22
2023-02-16T17:02:41.076Z,32.13
2023-02-16T17:05:07.905Z,29.75
2023-02-16T17:07:34.554Z,34.10
2023-02-16T17:10:01.363Z,39.03
2023-02-16T17:12:29.514Z,33.15
2023-02-16T17:14:56.514Z,34.45
2023-02-16T17:17:26.191Z,31.17
2023-02-16T17:19:52.561Z,32.00
2023-02-16T17:22:23.115Z,34.33
2023-02-16T17:24:49.781Z,34.03
2023-02-16T17:27:16.344Z,27.65
2023-02-16T17:29:44.674Z,27.48
2023-02-16T17:32:11.229Z,33.65
2023-02-16T17:34:37.707Z,32.83
2023-02-16T17:37:09.070Z,30.05
2023-02-16T17:39:38.606Z,34.38
2023-02-16T17:42:10.203Z,28.20
2023-02-16T17:44:36.663Z,31.48
2023-02-16T17:47:03.690Z,29.42
2023-02-16T17:49:30.091Z,27.88
2023-02-16T17:51:56.609Z,33.70
2023-02-16T17:54:24.236Z,36.22
2023-02-16T17:56:51.090Z,28.63
2023-02-16T17:59:17.584Z,32.05
2023-02-16T18:01:44.920Z,30.67
2023-02-16T18:04:11.337Z,29.25
2023-02-16T18:06:39.295Z,29.90
2023-02-16T18:09:05.830Z,27.33
2023-02-16T18:11:32.249Z,24.67
2023-02-16T18:13:58.971Z,28.63
2023-02-16T18:16:27.142Z,27.58
2023-02-16T18:18:58.131Z,33.03
2023-02-16T18:21:24.537Z,24.05
2023-02-16T18:23:51.300Z,27.65
2023-02-16T18:26:18.224Z,29.60
2023-02-16T18:28:45.194Z,27.30
2023-02-16T18:31:13.172Z,24.80
2023-02-16T18:33:39.952Z,26.00
2023-02-16T18:36:08.222Z,25.50
2023-02-16T18:38:34.924Z,24.25
2023-02-16T18:41:01.480Z,24.60
2023-02-16T18:43:28.021Z,22.05
2023-02-16T18:45:54.508Z,26.33
2023-02-16T18:48:21.679Z,24.38
2023-02-16T18:50:48.262Z,20.48
2023-02-16T18:53:14.721Z,21.27
2023-02-16T18:55:41.344Z,23.63
2023-02-16T18:58:08.579Z,21.92
2023-02-16T19:00:36.183Z,19.50
2023-02-16T19:03:03.204Z,23.55
2023-02-16T19:05:29.809Z,20.23
2023-02-16T19:07:56.259Z,20.42
2023-02-16T19:10:23.238Z,18.63
2023-02-16T19:12:49.772Z,20.63
2023-02-16T19:15:16.829Z,17.05
2023-02-16T19:17:44.465Z,17.55
2023-02-16T19:20:14.454Z,17.70
2023-02-16T19:22:41.188Z,18.45
2023-02-16T19:25:07.819Z,21.10
2023-02-16T19:27:35.559Z,15.65
2023-02-16T19:30:05.591Z,16.30
2023-02-16T19:32:32.765Z,15.32
2023-02-16T19:35:00.048Z,13.65
2023-02-16T19:37:26.958Z,14.63
2023-02-16T19:39:53.477Z,14.73
2023-02-16T19:42:21.020Z,15.07
2023-02-16T19:44:47.486Z,14.65
2023-02-16T19:47:13.870Z,15.43
2023-02-16T19:49:40.356Z,15.55
2023-02-16T19:52:06.874Z,13.95
2023-02-16T19:54:37.168Z,16.02
2023-02-16T19:57:04.793Z,14.80
2023-02-16T19:59:32.262Z,12.18
2023-02-16T20:01:59.299Z,14.40
2023-02-16T20:04:25.907Z,13.88
2023-02-16T20:06:54.513Z,14.40
2023-02-16T20:09:21.889Z,13.32
2023-02-16T20:11:48.558Z,14.63
2023-02-16T20:14:15.105Z,12.02
2023-02-16T20:16:41.967Z,15.35
2023-02-16T20:19:09.581Z,13.00
2023-02-16T20:21:36.342Z,12.25
2023-02-16T20:24:05.757Z,12.70
2023-02-16T20:26:35.824Z,12.13
2023-02-16T20:29:04.320Z,11.52
2023-02-16T20:31:32.930Z,12.10
2023-02-16T20:34:00.184Z,12.95
2023-02-16T20:36:26.807Z,11.63
2023-02-16T20:38:53.647Z,12.30
2023-02-16T20:41:20.440Z,11.98
2023-02-16T20:43:47.608Z,12.27
2023-02-16T20:46:14.967Z,11.95
2023-02-16T20:48:41.570Z,12.48
2023-02-16T20:51:08.856Z,14.13
2023-02-16T20:53:35.584Z,14.45
2023-02-16T20:56:07.642Z,13.52
2023-02-16T21:01:01.874Z,14.05
2023-02-16T21:03:28.440Z,12.82
2023-02-16T21:05:55.096Z,13.32
2023-02-16T21:08:21.657Z,20.35
2023-02-16T21:10:48.086Z,22.52
2023-02-16T21:13:14.568Z,16.60
2023-02-16T21:15:41.045Z,17.38
2023-02-16T21:18:07.753Z,17.50
2023-02-16T21:20:34.283Z,16.42
2023-02-16T21:23:03.536Z,16.35
2023-02-16T21:25:30.932Z,17.02
2023-02-16T21:27:57.582Z,15.93
2023-02-16T21:30:24.585Z,17.00
2023-02-16T21:32:53.312Z,18.67
2023-02-16T21:35:19.887Z,19.20
2023-02-16T21:37:46.355Z,17.50
2023-02-16T21:40:32.291Z,22.40
2023-02-16T21:42:59.319Z,21.25
2023-02-16T21:45:25.800Z,21.45
2023-02-16T21:48:11.624Z,22.10
2023-02-16T21:50:40.785Z,21.60
2023-02-16T21:53:09.882Z,23.83
2023-02-16T21:55:56.204Z,23.95
2023-02-16T21:58:26.903Z,27.75
2023-02-16T22:00:54.609Z,22.95
2023-02-16T22:03:21.220Z,23.92
2023-02-16T22:05:47.759Z,26.38
2023-02-16T22:08:14.756Z,26.98
2023-02-16T22:10:41.296Z,25.13
2023-02-16T22:13:08.065Z,25.50
2023-02-16T22:15:38.642Z,22.80
2023-02-16T22:18:05.890Z,23.83
2023-02-16T22:20:32.418Z,25.80
2023-02-16T22:22:58.995Z,25.83
2023-02-16T22:25:25.460Z,25.40
2023-02-16T22:27:52.208Z,23.00
2023-02-16T22:30:19.266Z,23.85
2023-02-16T22:32:45.729Z,22.88
2023-02-16T22:35:12.779Z,23.23
2023-02-16T22:37:39.685Z,22.48
2023-02-16T22:40:06.603Z,21.33
2023-02-16T22:42:33.169Z,17.38
2023-02-16T22:44:59.884Z,20.45
2023-02-16T22:47:26.296Z,16.00
2023-02-16T22:49:52.716Z,15.23
2023-02-16T22:52:19.118Z,19.10
2023-02-16T22:54:45.654Z,17.38
2023-02-16T22:57:14.544Z,16.90
2023-02-16T22:59:41.050Z,16.75
2023-02-16T23:02:07.518Z,22.27
2023-02-16T23:04:33.940Z,20.73
2023-02-16T23:07:00.380Z,19.55
2023-02-16T23:09:26.796Z,18.40
2023-02-16T23:11:53.330Z,18.77
2023-02-16T23:14:20.654Z,17.98
2023-02-16T23:16:50.096Z,16.88
2023-02-16T23:19:19.583Z,16.05
2023-02-16T23:21:49.137Z,17.80
2023-02-16T23:24:21.314Z,16.38
2023-02-16T23:29:16.653Z,17.55
2023-02-16T23:31:44.663Z,18.42
2023-02-16T23:34:11.622Z,14.38
2023-02-16T23:36:38.983Z,18.52
2023-02-16T23:39:08.945Z,20.50
2023-02-16T23:41:35.633Z,16.95
2023-02-16T23:44:02.518Z,20.30
2023-02-16T23:46:29.136Z,17.40
2023-02-16T23:48:55.893Z,20.98
2023-02-16T23:51:22.475Z,17.58
2023-02-16T23:53:49.196Z,17.73
2023-02-16T23:56:18.452Z,19.92
2023-02-16T23:58:46.094Z,17.08
